0MA2 weather

Healthalliance Hospital-Leominster Heliport
Leominster, Massachusetts, United States

Public forecast

Using degrees Fahrenheit for public forecast. Weather courtesy of forecast.io.

Closest aviation weather report (METAR) to Healthalliance Hospital-Leominster Heliport

Closest report is Fitchburg Municipal Airport, 0.8 nm (1.5 km) NNE. Retrieved 2020/01/17 17:52 UTC (27 minutes ago):

KFIT 171752Z AUTO 31014KT 10SM CLR M07/M21 A3052 RMK AO2 PK WND 34028/1709 SLP341 T10671211 11067 21106 58004

Closest aviation forecast (TAF) to Healthalliance Hospital-Leominster Heliport

Closest forecast is Worcester Regional Airport, 17.2 nm (31.8 km) SSW. Retrieved 2020/01/17 18:22 UTC (0 seconds ago):

TAF KORH 171720Z 1718/1818 32013G26KT P6SM SKC FM172100 31012G20KT P6SM SKC FM180300 31009KT P6SM SKC FM181200 30004KT P6SM BKN120 FM181400 27003KT P6SM BKN150 FM181600 18003KT P6SM OVC090